ESIB

Såtenäs Air Base Airport

Såtenäs, Sweden
METAR ESIB 280050Z 11005KT CAVOK 11/03 Q1029
Observed Flight Rules
May-28 @ 00:50 UTC (28 minutes ago) Visual Flight Rules
Wind Visibility Clouds
110° at 5 knots 10,000+ meters
  • Clear skies
Temperatures Readings
Current 11°C / 52°F
Dewpoint 3°C / 37°F
Humidity 58%
Altimeter 30.38" Hg
Pressure 1029 hPa
Elevation 74
METAR ESIB 280050Z 11005KT CAVOK 11/03 Q1029
Observed Flight Rules
May-28 @ 00:50 UTC
(28 minutes ago)
VFR
Wind Visibility
110° at 5 knots 10,000+ meters
Clouds
  • Clear skies
Temperature Dewpoint
11°C / 52°F 3°C / 37°F
Humidity Altimeter Pressure
58% 30.38" Hg 1029 hPa